createdAt,value
2018-07-24T00:02:23.728Z,22.20
2018-07-24T00:04:55.177Z,22.20
2018-07-24T00:07:26.352Z,22.20
2018-07-24T00:09:57.163Z,22.20
2018-07-24T00:12:29.179Z,22.20
2018-07-24T00:15:00.380Z,22.10
2018-07-24T00:17:31.612Z,22.10
2018-07-24T00:20:03.076Z,22.10
2018-07-24T00:22:34.507Z,22.10
2018-07-24T00:25:05.955Z,22.10
2018-07-24T00:27:37.814Z,22.10
2018-07-24T00:30:08.571Z,22.10
2018-07-24T00:32:39.377Z,22.00
2018-07-24T00:35:10.574Z,22.10
2018-07-24T00:37:41.854Z,22.00
2018-07-24T00:40:13.289Z,22.00
2018-07-24T00:42:44.946Z,22.00
2018-07-24T00:45:16.594Z,22.00
2018-07-24T00:47:48.471Z,21.90
2018-07-24T00:50:19.830Z,21.90
2018-07-24T00:52:51.514Z,21.90
2018-07-24T00:55:23.550Z,21.90
2018-07-24T00:57:54.316Z,21.90
2018-07-24T01:00:26.057Z,21.80
2018-07-24T01:02:57.889Z,21.80
2018-07-24T01:05:28.995Z,21.80
2018-07-24T01:07:59.499Z,21.70
2018-07-24T01:10:31.095Z,21.70
2018-07-24T01:13:02.614Z,21.70
2018-07-24T01:15:34.218Z,21.60
2018-07-24T01:18:05.291Z,21.60
2018-07-24T01:20:37.510Z,21.60
2018-07-24T01:23:09.044Z,21.60
2018-07-24T01:25:39.864Z,21.50
2018-07-24T01:28:11.047Z,21.50
2018-07-24T01:30:42.356Z,21.50
2018-07-24T01:33:13.001Z,21.50
2018-07-24T01:35:43.549Z,21.40
2018-07-24T01:38:15.512Z,21.40
2018-07-24T01:40:47.009Z,21.40
2018-07-24T01:43:18.234Z,21.40
2018-07-24T01:45:49.660Z,21.40
2018-07-24T01:48:21.070Z,21.40
2018-07-24T01:50:51.975Z,21.40
2018-07-24T01:53:23.343Z,21.40
2018-07-24T01:55:55.410Z,21.30
2018-07-24T01:58:26.560Z,21.30
2018-07-24T02:01:02.039Z,21.30
2018-07-24T02:03:33.999Z,21.30
2018-07-24T02:06:05.029Z,21.30
2018-07-24T02:08:36.061Z,21.20
2018-07-24T02:11:07.078Z,21.20
2018-07-24T02:13:38.614Z,21.20
2018-07-24T02:16:09.916Z,21.20
2018-07-24T02:18:40.696Z,21.20
2018-07-24T02:21:11.628Z,21.10
2018-07-24T02:26:12.399Z,21.00
2018-07-24T02:28:45.158Z,21.00
2018-07-24T02:31:16.188Z,21.00
2018-07-24T02:33:47.870Z,21.00
2018-07-24T02:38:48.496Z,21.00
2018-07-24T02:41:19.469Z,20.90
2018-07-24T02:43:50.173Z,20.90
2018-07-24T02:46:22.126Z,20.90
2018-07-24T02:48:53.643Z,20.80
2018-07-24T02:51:24.985Z,20.80
2018-07-24T02:53:57.035Z,20.80
2018-07-24T02:56:28.325Z,20.70
2018-07-24T02:58:59.514Z,20.70
2018-07-24T03:01:31.721Z,20.70
2018-07-24T03:04:02.729Z,20.60
2018-07-24T03:06:34.596Z,20.60
2018-07-24T03:09:07.248Z,20.60
2018-07-24T03:11:39.199Z,20.50
2018-07-24T03:14:10.488Z,20.50
2018-07-24T03:16:41.881Z,20.40
2018-07-24T03:19:13.292Z,20.40
2018-07-24T03:21:44.956Z,20.40
2018-07-24T03:24:16.586Z,20.40
2018-07-24T03:26:48.209Z,20.40
2018-07-24T03:29:19.252Z,20.40
2018-07-24T03:31:50.907Z,20.40
2018-07-24T03:34:22.659Z,20.30
2018-07-24T03:36:54.032Z,20.30
2018-07-24T03:39:25.689Z,20.30
2018-07-24T03:41:56.380Z,20.30
2018-07-24T03:44:27.278Z,20.30
2018-07-24T03:46:58.794Z,20.30
2018-07-24T03:49:30.105Z,20.30
2018-07-24T03:52:01.191Z,20.30
2018-07-24T03:54:32.021Z,20.20
2018-07-24T03:57:03.917Z,20.20
2018-07-24T03:59:35.384Z,20.20
2018-07-24T04:02:06.481Z,20.20
2018-07-24T04:04:38.456Z,20.20
2018-07-24T04:07:09.380Z,20.20
2018-07-24T04:09:40.093Z,20.20
2018-07-24T04:12:11.057Z,20.20
2018-07-24T04:14:41.781Z,20.20
2018-07-24T04:17:13.252Z,20.20
2018-07-24T04:19:44.356Z,20.20
2018-07-24T04:22:15.949Z,20.20
2018-07-24T04:24:47.409Z,20.10
2018-07-24T04:27:18.789Z,20.10
2018-07-24T04:29:49.159Z,20.10
2018-07-24T04:32:20.691Z,20.10
2018-07-24T04:34:52.164Z,20.10
2018-07-24T04:37:23.051Z,20.10
2018-07-24T04:39:54.418Z,20.10
2018-07-24T04:42:26.300Z,20.10
2018-07-24T04:44:58.218Z,20.10
2018-07-24T04:52:31.324Z,20.10
2018-07-24T04:55:02.335Z,20.20
2018-07-24T04:57:34.164Z,20.20
2018-07-24T05:00:05.130Z,20.20
2018-07-24T05:02:36.707Z,20.20
2018-07-24T05:05:07.604Z,20.30
2018-07-24T05:07:38.709Z,20.30
2018-07-24T05:10:10.232Z,20.40
2018-07-24T05:15:13.026Z,20.40
2018-07-24T05:17:43.752Z,20.40
2018-07-24T05:20:14.817Z,20.50
2018-07-24T05:22:45.994Z,20.50
2018-07-24T05:25:16.543Z,20.60
2018-07-24T05:27:47.800Z,20.60
2018-07-24T05:30:18.936Z,20.70
2018-07-24T05:32:49.784Z,20.80
2018-07-24T05:35:20.989Z,20.90
2018-07-24T05:37:52.417Z,20.90
2018-07-24T05:40:22.992Z,21.00
2018-07-24T05:42:54.089Z,21.10
2018-07-24T05:45:25.124Z,21.10
2018-07-24T05:47:56.101Z,21.20
2018-07-24T05:50:27.299Z,21.30
2018-07-24T05:52:58.120Z,21.40
2018-07-24T05:55:28.723Z,21.40
2018-07-24T05:58:00.036Z,21.50
2018-07-24T06:00:31.446Z,21.60
2018-07-24T06:03:02.923Z,21.70
2018-07-24T06:05:34.387Z,21.70
2018-07-24T06:08:06.098Z,21.80
2018-07-24T06:10:37.355Z,21.90
2018-07-24T06:13:09.002Z,22.00
2018-07-24T06:15:40.558Z,22.10
2018-07-24T06:18:12.324Z,22.20
2018-07-24T06:20:43.076Z,22.20
2018-07-24T06:23:14.624Z,22.30
2018-07-24T06:25:45.961Z,22.40
2018-07-24T06:28:16.492Z,22.50
2018-07-24T06:30:47.763Z,22.60
2018-07-24T06:33:19.072Z,22.60
2018-07-24T06:35:49.696Z,22.70
2018-07-24T06:38:22.533Z,22.80
2018-07-24T06:40:53.512Z,22.90
2018-07-24T06:43:24.380Z,22.90
2018-07-24T06:45:55.246Z,23.00
2018-07-24T06:48:26.220Z,23.10
2018-07-24T06:50:56.933Z,23.10
2018-07-24T06:53:28.219Z,23.20
2018-07-24T06:55:58.938Z,23.30
2018-07-24T06:58:30.057Z,23.30
2018-07-24T07:01:01.404Z,23.40
2018-07-24T07:03:32.591Z,23.50
2018-07-24T07:06:03.845Z,23.60
2018-07-24T07:08:35.405Z,23.70
2018-07-24T07:11:06.061Z,23.80
2018-07-24T07:13:37.314Z,23.90
2018-07-24T07:16:08.565Z,24.00
2018-07-24T07:21:09.768Z,24.30
2018-07-24T07:23:40.723Z,24.50
2018-07-24T07:26:12.519Z,24.60
2018-07-24T07:28:43.468Z,24.80
2018-07-24T07:31:14.959Z,24.90
2018-07-24T07:33:46.000Z,25.00
2018-07-24T07:36:16.922Z,25.20
2018-07-24T07:38:48.740Z,25.30
2018-07-24T07:41:19.790Z,25.40
2018-07-24T07:43:50.996Z,25.50
2018-07-24T07:46:21.932Z,25.60
2018-07-24T07:48:53.671Z,25.70
2018-07-24T07:51:24.459Z,25.80
2018-07-24T07:53:55.104Z,25.90
2018-07-24T07:56:26.323Z,26.00
2018-07-24T07:58:57.489Z,26.20
2018-07-24T08:01:27.603Z,26.20
2018-07-24T08:03:58.927Z,26.30
2018-07-24T08:06:29.637Z,26.30
2018-07-24T08:09:01.238Z,26.40
2018-07-24T08:11:31.633Z,26.50
2018-07-24T08:14:02.653Z,26.60
2018-07-24T08:16:33.696Z,26.60
2018-07-24T08:19:04.183Z,26.70
2018-07-24T08:21:34.254Z,26.70
2018-07-24T08:26:34.314Z,26.80
2018-07-24T08:29:05.173Z,26.90
2018-07-24T08:31:36.699Z,27.00
2018-07-24T08:34:07.938Z,27.10
2018-07-24T08:36:38.634Z,27.20
2018-07-24T08:39:12.737Z,27.20
2018-07-24T08:41:44.281Z,27.30
2018-07-24T08:44:16.954Z,27.40
2018-07-24T08:46:47.953Z,27.60
2018-07-24T08:49:19.956Z,27.60
2018-07-24T08:51:50.700Z,27.70
2018-07-24T08:54:21.945Z,27.80
2018-07-24T08:56:53.036Z,27.80
2018-07-24T08:59:23.655Z,27.90
2018-07-24T09:01:54.667Z,28.10
2018-07-24T09:04:26.655Z,28.20
2018-07-24T09:06:58.066Z,28.30
2018-07-24T09:09:29.218Z,28.40
2018-07-24T09:12:00.791Z,28.60
2018-07-24T09:14:32.312Z,28.70
2018-07-24T09:17:03.556Z,28.90
2018-07-24T09:19:34.533Z,29.10
2018-07-24T09:22:05.441Z,29.30
2018-07-24T09:24:37.179Z,29.60
2018-07-24T09:27:08.960Z,29.80
2018-07-24T09:29:39.555Z,30.10
2018-07-24T09:32:10.307Z,30.40
2018-07-24T09:34:41.515Z,30.80
2018-07-24T09:37:12.730Z,31.10
2018-07-24T09:39:43.986Z,31.60
2018-07-24T09:42:14.280Z,32.00
2018-07-24T09:44:44.492Z,32.50
2018-07-24T09:47:15.727Z,32.80
2018-07-24T09:49:46.448Z,33.20
2018-07-24T09:52:16.902Z,33.70
2018-07-24T09:54:47.955Z,34.20
2018-07-24T09:57:18.907Z,34.60
2018-07-24T09:59:49.900Z,35.00
2018-07-24T10:02:21.574Z,35.30
2018-07-24T10:07:22.601Z,35.60
2018-07-24T10:09:53.009Z,35.40
2018-07-24T10:12:24.003Z,35.20
2018-07-24T10:14:55.264Z,34.80
2018-07-24T10:17:26.392Z,34.30
2018-07-24T10:19:57.321Z,33.90
2018-07-24T10:22:28.114Z,33.50
2018-07-24T10:24:59.890Z,33.20
2018-07-24T10:27:31.412Z,32.80
2018-07-24T10:30:03.240Z,32.50
2018-07-24T10:32:34.007Z,32.30
2018-07-24T10:35:05.827Z,32.10
2018-07-24T10:37:36.943Z,31.80
2018-07-24T10:40:08.724Z,31.60
2018-07-24T10:42:40.961Z,31.50
2018-07-24T10:45:14.056Z,31.30
2018-07-24T10:47:46.547Z,31.20
2018-07-24T10:50:17.366Z,31.20
2018-07-24T10:52:48.364Z,31.10
2018-07-24T10:55:19.090Z,31.00
2018-07-24T10:57:50.915Z,30.90
2018-07-24T11:00:21.519Z,30.90
2018-07-24T11:02:52.806Z,30.80
2018-07-24T11:05:26.057Z,30.80
2018-07-24T11:07:57.511Z,30.70
2018-07-24T11:10:28.822Z,30.70
2018-07-24T11:13:00.326Z,30.70
2018-07-24T11:15:31.854Z,30.70
2018-07-24T11:18:02.898Z,30.70
2018-07-24T11:20:33.741Z,30.70
2018-07-24T11:23:04.991Z,30.70
2018-07-24T11:25:37.277Z,30.70
2018-07-24T11:28:08.835Z,30.70
2018-07-24T11:30:40.000Z,30.70
2018-07-24T11:33:10.978Z,30.70
2018-07-24T11:35:42.108Z,30.70
2018-07-24T11:38:13.376Z,30.70
2018-07-24T11:40:44.726Z,30.60
2018-07-24T11:43:16.250Z,30.60
2018-07-24T11:45:48.381Z,30.60
2018-07-24T11:48:19.533Z,30.60
2018-07-24T11:50:50.672Z,30.60
2018-07-24T11:53:21.656Z,30.70
2018-07-24T11:55:52.582Z,30.70
2018-07-24T11:58:23.795Z,30.80
2018-07-24T12:00:55.279Z,30.90
2018-07-24T12:03:26.544Z,30.90
2018-07-24T12:05:57.847Z,30.90
2018-07-24T12:08:28.572Z,31.00
2018-07-24T12:10:59.923Z,31.00
2018-07-24T12:13:30.386Z,31.00
2018-07-24T12:16:02.341Z,31.10
2018-07-24T12:18:33.245Z,31.20
2018-07-24T12:21:03.855Z,31.20
2018-07-24T12:23:34.243Z,31.20
2018-07-24T12:26:05.146Z,31.30
2018-07-24T12:28:35.562Z,31.30
2018-07-24T12:31:06.838Z,31.40
2018-07-24T12:33:38.034Z,31.50
2018-07-24T12:36:09.326Z,31.50
2018-07-24T12:38:40.272Z,31.60
2018-07-24T12:41:12.911Z,31.50
2018-07-24T12:43:43.286Z,31.50
2018-07-24T12:46:13.495Z,31.50
2018-07-24T12:48:43.476Z,31.50
2018-07-24T12:51:14.450Z,31.50
2018-07-24T12:53:45.589Z,31.50
2018-07-24T12:56:17.296Z,31.50
2018-07-24T12:58:47.154Z,31.60
2018-07-24T13:01:17.987Z,31.60
2018-07-24T13:03:48.863Z,31.60
2018-07-24T13:06:19.040Z,31.60
2018-07-24T13:08:49.607Z,31.60
2018-07-24T13:11:21.374Z,31.60
2018-07-24T13:13:53.194Z,31.50
2018-07-24T13:16:24.313Z,31.50
2018-07-24T13:18:55.738Z,31.50
2018-07-24T13:21:26.735Z,31.50
2018-07-24T13:23:58.403Z,31.40
2018-07-24T13:26:29.804Z,31.40
2018-07-24T13:29:01.294Z,31.40
2018-07-24T13:31:32.799Z,31.40
2018-07-24T13:34:03.693Z,31.40
2018-07-24T13:36:35.039Z,31.50
2018-07-24T13:39:08.462Z,31.60
2018-07-24T13:41:39.840Z,31.60
2018-07-24T13:44:10.773Z,31.70
2018-07-24T13:46:42.252Z,31.70
2018-07-24T13:49:12.489Z,31.80
2018-07-24T13:51:43.613Z,31.70
2018-07-24T13:54:14.539Z,31.70
2018-07-24T13:56:45.358Z,31.80
2018-07-24T13:59:15.957Z,31.80
2018-07-24T14:01:47.551Z,31.90
2018-07-24T14:04:18.987Z,31.90
2018-07-24T14:06:49.095Z,31.80
2018-07-24T14:09:20.517Z,31.90
2018-07-24T14:11:51.554Z,31.90
2018-07-24T14:14:22.290Z,32.00
2018-07-24T14:16:53.323Z,32.10
2018-07-24T14:19:24.298Z,32.10
2018-07-24T14:21:55.765Z,32.10
2018-07-24T14:24:26.009Z,32.10
2018-07-24T14:26:58.574Z,32.10
2018-07-24T14:29:29.908Z,32.10
2018-07-24T14:32:01.120Z,32.10
2018-07-24T14:34:31.709Z,32.10
2018-07-24T14:37:02.728Z,32.10
2018-07-24T14:39:33.793Z,32.20
2018-07-24T14:42:03.938Z,32.20
2018-07-24T14:44:35.671Z,32.20
2018-07-24T14:47:07.704Z,32.20
2018-07-24T14:52:09.251Z,32.30
2018-07-24T14:54:40.496Z,32.30
2018-07-24T14:57:11.559Z,32.30
2018-07-24T15:02:13.083Z,32.40
2018-07-24T15:04:44.476Z,32.40
2018-07-24T15:07:15.427Z,32.40
2018-07-24T15:09:46.190Z,32.50
2018-07-24T15:12:16.938Z,32.50
2018-07-24T15:14:47.591Z,32.40
2018-07-24T15:17:18.424Z,32.50
2018-07-24T15:19:49.141Z,32.50
2018-07-24T15:22:20.141Z,32.60
2018-07-24T15:24:50.559Z,32.60
2018-07-24T15:27:21.248Z,32.60
2018-07-24T15:29:51.271Z,32.60
2018-07-24T15:32:21.501Z,32.60
2018-07-24T15:34:52.318Z,32.60
2018-07-24T15:37:23.433Z,32.60
2018-07-24T15:39:54.028Z,32.70
2018-07-24T15:42:25.341Z,32.60
2018-07-24T15:44:56.615Z,32.60
2018-07-24T15:47:27.376Z,32.60
2018-07-24T15:49:58.961Z,32.70
2018-07-24T15:52:30.093Z,32.70
2018-07-24T15:55:00.994Z,32.70
2018-07-24T15:57:33.151Z,32.70
2018-07-24T16:00:04.410Z,32.70
2018-07-24T16:02:35.925Z,32.70
2018-07-24T16:05:07.821Z,32.70
2018-07-24T16:10:09.741Z,32.60
2018-07-24T16:12:41.770Z,32.60
2018-07-24T16:15:12.989Z,32.70
2018-07-24T16:17:43.830Z,32.70
2018-07-24T16:20:14.478Z,32.70
2018-07-24T16:22:45.223Z,32.70
2018-07-24T16:25:16.291Z,32.70
2018-07-24T16:27:47.664Z,32.70
2018-07-24T16:30:18.162Z,32.60
2018-07-24T16:32:49.235Z,32.50
2018-07-24T16:35:20.759Z,32.50
2018-07-24T16:37:52.441Z,32.60
2018-07-24T16:40:23.335Z,32.60
2018-07-24T16:42:54.219Z,32.60
2018-07-24T16:45:25.518Z,32.50
2018-07-24T16:47:56.768Z,32.50
2018-07-24T16:50:28.320Z,32.50
2018-07-24T16:53:00.821Z,32.50
2018-07-24T16:55:31.884Z,32.50
2018-07-24T16:58:03.140Z,32.50
2018-07-24T17:00:33.684Z,32.50
2018-07-24T17:03:05.422Z,32.50
2018-07-24T17:05:35.955Z,32.40
2018-07-24T17:08:07.018Z,32.40
2018-07-24T17:10:38.063Z,32.50
2018-07-24T17:13:09.204Z,32.50
2018-07-24T17:15:39.615Z,32.50
2018-07-24T17:18:10.666Z,32.50
2018-07-24T17:20:41.020Z,32.50
2018-07-24T17:23:12.115Z,32.40
2018-07-24T17:25:42.913Z,32.40
2018-07-24T17:28:15.106Z,32.40
2018-07-24T17:30:46.266Z,32.40
2018-07-24T17:33:17.982Z,32.30
2018-07-24T17:38:18.590Z,32.30
2018-07-24T17:40:48.965Z,32.30
2018-07-24T17:43:20.481Z,32.20
2018-07-24T17:45:51.277Z,32.20
2018-07-24T17:48:21.194Z,32.10
2018-07-24T17:50:51.666Z,32.10
2018-07-24T17:53:22.052Z,32.10
2018-07-24T17:55:53.394Z,32.10
2018-07-24T17:58:23.886Z,32.10
2018-07-24T18:00:54.630Z,32.00
2018-07-24T18:03:25.167Z,32.00
2018-07-24T18:05:55.769Z,32.00
2018-07-24T18:08:29.338Z,31.90
2018-07-24T18:11:00.212Z,31.80
2018-07-24T18:13:30.809Z,31.80
2018-07-24T18:16:01.565Z,31.80
2018-07-24T18:18:33.355Z,31.70
2018-07-24T18:21:05.069Z,31.70
2018-07-24T18:26:06.286Z,31.50
2018-07-24T18:28:38.302Z,31.50
2018-07-24T18:31:09.188Z,31.40
2018-07-24T18:33:40.373Z,31.30
2018-07-24T18:36:11.355Z,31.20
2018-07-24T18:38:43.102Z,31.10
2018-07-24T18:41:14.464Z,31.00
2018-07-24T18:43:45.641Z,30.90
2018-07-24T18:46:16.982Z,30.90
2018-07-24T18:48:48.301Z,30.80
2018-07-24T18:51:19.306Z,30.70
2018-07-24T18:53:50.500Z,30.60
2018-07-24T18:56:21.929Z,30.50
2018-07-24T18:58:53.512Z,30.40
2018-07-24T19:01:23.978Z,30.30
2018-07-24T19:03:55.825Z,30.30
2018-07-24T19:06:27.619Z,30.20
2018-07-24T19:08:59.065Z,30.10
2018-07-24T19:11:29.283Z,30.00
2018-07-24T19:13:59.974Z,29.90
2018-07-24T19:16:30.345Z,29.80
2018-07-24T19:19:02.204Z,29.80
2018-07-24T19:21:33.004Z,29.70
2018-07-24T19:24:04.438Z,29.60
2018-07-24T19:26:35.341Z,29.50
2018-07-24T19:29:06.509Z,29.50
2018-07-24T19:31:37.498Z,29.40
2018-07-24T19:36:38.577Z,29.20
2018-07-24T19:39:11.048Z,29.20
2018-07-24T19:41:41.764Z,29.10
2018-07-24T19:44:12.760Z,29.00
2018-07-24T19:46:43.641Z,28.90
2018-07-24T19:49:14.869Z,28.80
2018-07-24T19:51:45.261Z,28.70
2018-07-24T19:54:16.203Z,28.60
2018-07-24T19:56:47.160Z,28.60
2018-07-24T19:59:19.203Z,28.50
2018-07-24T20:01:50.643Z,28.40
2018-07-24T20:04:21.237Z,28.40
2018-07-24T20:06:51.529Z,28.30
2018-07-24T20:09:22.876Z,28.20
2018-07-24T20:11:53.308Z,28.10
2018-07-24T20:14:24.627Z,28.10
2018-07-24T20:16:56.118Z,28.00
2018-07-24T20:19:27.106Z,27.90
2018-07-24T20:21:57.996Z,27.90
2018-07-24T20:24:28.797Z,27.80
2018-07-24T20:26:59.767Z,27.70
2018-07-24T20:29:30.448Z,27.60
2018-07-24T20:32:00.926Z,27.50
2018-07-24T20:34:32.927Z,27.50
2018-07-24T20:37:04.488Z,27.40
2018-07-24T20:39:36.391Z,27.30
2018-07-24T20:42:07.560Z,27.30
2018-07-24T20:44:38.715Z,27.20
2018-07-24T20:47:10.199Z,27.20
2018-07-24T20:49:41.725Z,27.10
2018-07-24T20:52:12.271Z,27.00
2018-07-24T20:54:44.173Z,27.00
2018-07-24T20:57:15.004Z,26.90
2018-07-24T20:59:47.527Z,26.90
2018-07-24T21:02:19.116Z,26.80
2018-07-24T21:04:50.293Z,26.70
2018-07-24T21:07:21.292Z,26.70
2018-07-24T21:09:54.084Z,26.60
2018-07-24T21:12:25.664Z,26.60
2018-07-24T21:14:57.663Z,26.50
2018-07-24T21:17:28.184Z,26.50
2018-07-24T21:20:00.090Z,26.40
2018-07-24T21:22:30.992Z,26.30
2018-07-24T21:25:01.562Z,26.30
2018-07-24T21:27:32.042Z,26.20
2018-07-24T21:30:05.842Z,26.20
2018-07-24T21:32:37.395Z,26.10
2018-07-24T21:35:08.649Z,26.10
2018-07-24T21:37:39.465Z,26.00
2018-07-24T21:40:09.868Z,26.00
2018-07-24T21:42:41.221Z,25.90
2018-07-24T21:45:12.435Z,25.90
2018-07-24T21:47:43.114Z,25.90
2018-07-24T21:50:14.332Z,25.80
2018-07-24T21:52:44.709Z,25.80
2018-07-24T21:57:47.012Z,25.70
2018-07-24T22:00:18.907Z,25.70
2018-07-24T22:02:50.470Z,25.60
2018-07-24T22:05:22.160Z,25.60
2018-07-24T22:07:54.272Z,25.50
2018-07-24T22:10:25.123Z,25.50
2018-07-24T22:12:56.265Z,25.50
2018-07-24T22:15:29.297Z,25.40
2018-07-24T22:18:00.887Z,25.40
2018-07-24T22:20:31.974Z,25.30
2018-07-24T22:25:33.597Z,25.30
2018-07-24T22:28:04.715Z,25.20
2018-07-24T22:30:35.634Z,25.20
2018-07-24T22:33:06.485Z,25.10
2018-07-24T22:35:38.016Z,25.10
2018-07-24T22:38:09.205Z,25.10
2018-07-24T22:40:41.341Z,25.00
2018-07-24T22:43:12.597Z,25.00
2018-07-24T22:45:44.853Z,25.00
2018-07-24T22:48:16.484Z,25.00
2018-07-24T22:50:48.221Z,24.90
2018-07-24T22:53:18.840Z,24.90
2018-07-24T22:55:50.668Z,24.80
2018-07-24T22:58:21.894Z,24.80
2018-07-24T23:00:54.071Z,24.80
2018-07-24T23:03:25.158Z,24.70
2018-07-24T23:05:57.706Z,24.70
2018-07-24T23:08:30.043Z,24.60
2018-07-24T23:11:02.573Z,24.60
2018-07-24T23:13:34.562Z,24.60
2018-07-24T23:16:06.166Z,24.60
2018-07-24T23:18:38.016Z,24.60
2018-07-24T23:21:09.651Z,24.50
2018-07-24T23:23:40.240Z,24.50
2018-07-24T23:28:42.537Z,24.40
2018-07-24T23:31:13.717Z,24.40
2018-07-24T23:33:45.043Z,24.40
2018-07-24T23:36:15.464Z,24.30
2018-07-24T23:38:46.826Z,24.30
2018-07-24T23:41:17.942Z,24.30
2018-07-24T23:43:49.478Z,24.20
2018-07-24T23:46:20.699Z,24.20
2018-07-24T23:48:52.456Z,24.20
2018-07-24T23:51:23.508Z,24.10
2018-07-24T23:53:55.486Z,24.10
2018-07-24T23:56:26.572Z,24.10
2018-07-24T23:58:58.574Z,24.00
